Relevés horaires Naluns / Schlivera (Suisse)


Relevés horaires à Naluns / Schlivera - Jeudi 20 Sept. 2018
Heure UTC1 Température [°C] Vent [km/h] Hum. [%] Pres.4 [hPa] Visi. [Km] Nébu. [octa] Préc.5 [mm] Cond.
2m. Res. Ros. Dir.2 Vit. Moy. Raf.3
21:00 9.6 8.7 1.5 E 7.4 -- 13.0 57 700(0.2/3h) -- -- -- --
20:00 10.8 10.8 0.5 ESE 1.9 -- -- 49 700 -- -- -- --
19:00 11.0 11.0 0.1 SE 1.9 -- -- 47 700 -- -- -- --
18:00 11.6 11.4 -0.1 SE 5.6 -- 20.4 44 700(-0.3/3h) -- -- -- --
17:00 12.5 11.7 -0.7 E 9.3 -- -- 40 700 -- -- -- --
16:00 13.1 12.4 -- E 9.3 -- -- -- 700 -- -- -- --
15:00 13.7 13.5 -0.8 E 7.4 -- 20.4 37 700(-1.0/3h) -- -- -- --
14:00 13.5 12.9 -0.6 E 9.3 -- -- 38 700 -- -- -- --
13:00 13.9 13.1 3.4 E 11.1 -- -- 49 700 -- -- -- --
12:00 12.7 11.7 1.1 ESE 11.1 -- 22.2 45 700(-0.7/3h) -- -- -- --
11:00 13.3 12.4 1.7 E 11.1 -- -- 45 700 -- -- -- --
10:00 11.9 10.7 4.0 SE 11.1 -- -- 58 700 -- -- -- --
09:00 11.6 11 4.8 SSE 7.4 -- 16.7 63 700 -- -- -- --
08:00 9.4 8.9 2.4 S 5.6 -- -- 62 700 -- -- -- --
07:00 9.1 8.1 2.7 E 7.4 -- -- 64 700 -- -- -- --
06:00 8.3 8.3 -0.7 NNE 3.7 -- 14.8 53 700(-0.1/3h) -- -- -- --
05:00 8.2 8.2 0.1 NNE 3.7 -- -- 57 700 -- -- -- --
04:00 7.7 6.9 3.6 NE 5.6 -- -- 75 700 -- -- -- --
03:00 7.7 6.4 0.1 N 7.4 -- 14.8 59 700(-0.5/3h) -- -- -- --
02:00 7.8 7.1 1.5 E 5.6 -- -- 64 700 -- -- -- --
01:00 7.9 6.7 1.4 O 7.4 -- -- 63 700 -- -- -- --
00:00 8.1 8.1 3.6 SO 3.7 -- 16.7 73 700(-0.4/3h) -- -- -- --

1 Coordinated Universal Time. Actuellement il est 00:00 locale et 22:00 UTC.

2 Le vent souffle depuis la direction indiquée vers la direction oposée.

3 Les rafales max. sont disponible 40 min après l'heure du relevé.

4 Pour les stations d'altitude (plus de 600m) le géopotentiel du niveau le plus proche de la pression obligatoire est indiqué.

5 Les stations disposant d'un diffuseur peuvent indiquer "trace". Cela signifie que des précipitations ont touchés le sol mais que la quantité est inférieure à 0.1 mm.

Récapitulatif de la journée
Température [°C] Vent [km/h] Ensoleillement4 [h] Precipitations totale5 [mm] Pression [Hpa]
Min1 Max.2 Moy.3 Max. Min Max.
7.5 14.2 0 22.2 0 h 0 min 0 700.0 700.0

1 Température minimale relevée entre 18:00 UTC la veille et 18:00 UTC le jour donné.

2 Température maximale relevée entre 06:00 UTC le jour donné et 06:00 UTC le lendemain.

3 Vent moyen de la journée basé sur les relevés horaires.

4 Ensoleillement en heures relevé entre 06:00 UTC la veille et 06:00 UTC le jour donné.

5 Précipitations totales tombées entre 06:00 UTC la jour donné et 06:00 UTC le lendemain.

Graphiques horaires